MSC Bettina — HPFG — position and weather

sailwx.info

Track history (hours):
 
Tides and Currents Weather Stations Pressure Air Temp Water Temp Dewpoint Dewpoint Depression Visibility Wind Speed Wind Dir Waves Ship Positions

MSC Bettina

Last reported at 2017-Jan-12 06:28 UTC. Time now 2017-Jan-20 22:09 UTC.
Position N 37°36' E 016°20'.
Warning: this ship's position is 8 days out of date.

Length 366 m; draft 13.5 m.

Type: Ship (hazmat cat A). MMSI: 352361000.

Date/timePositionNaut miles runAvg speedWind from/ knotsBaromVisibWave heightAir tempDewpointWater temp
2017-Jan-12 06:28N 37°36' E 016°20'2020.1
2017-Jan-12 05:28N 37°45' E 015°57'1819.7
2017-Jan-12 04:34N 37°53' E 015°37'1818.1
2017-Jan-12 03:33N 38°11' E 015°36'1312.9
2017-Jan-12 02:32N 38°22' E 015°45'9 8.8
2017-Jan-12 01:33N 38°27' E 015°54'0 0.0
2017-Jan-11 22:24N 38°27' E 015°54'0 0.0
2017-Jan-11 21:24N 38°27' E 015°54'0 0.0
2017-Jan-11 20:30N 38°27' E 015°54'0 0.0
2017-Jan-11 19:30N 38°27' E 015°54'0 0.0
2017-Jan-11 17:24N 38°27' E 015°54'0 0.0
2017-Jan-11 16:33N 38°27' E 015°54'0 0.0
2017-Jan-11 15:27N 38°27' E 015°54'0 0.0
2017-Jan-11 14:30N 38°27' E 015°54'0 0.0
2017-Jan-11 13:33N 38°27' E 015°54'0 0.0
2017-Jan-11 12:30N 38°27' E 015°54'0 0.0
2017-Jan-11 11:33N 38°27' E 015°54'0 0.0
2017-Jan-11 10:27N 38°27' E 015°54'0 0.0
2017-Jan-11 09:33N 38°27' E 015°54'0 0.0
2017-Jan-11 08:33N 38°27' E 015°54'0 0.0
2017-Jan-11 07:27N 38°27' E 015°54'0 0.0
2017-Jan-11 06:33N 38°27' E 015°54'0 0.0
2017-Jan-11 05:27N 38°27' E 015°54'0 0.0
2017-Jan-11 04:33N 38°27' E 015°54'0 0.0
2017-Jan-11 03:33N 38°27' E 015°54'0 0.0
2017-Jan-11 02:33N 38°27' E 015°54'0 0.0
2017-Jan-11 01:30N 38°27' E 015°54'0 0.0
2017-Jan-10 23:30N 38°27' E 015°54'0 0.0
2017-Jan-10 22:09N 38°27' E 015°54'0 0.0
2017-Jan-10 21:33N 38°27' E 015°54'0 0.0
2017-Jan-10 20:30N 38°27' E 015°54'0 0.0
2017-Jan-10 19:27N 38°27' E 015°54'0 0.0
2017-Jan-10 18:27N 38°27' E 015°54'0 0.0
2017-Jan-10 17:15N 38°27' E 015°54'0 0.0
2017-Jan-10 16:27N 38°27' E 015°54'0 0.0
2017-Jan-10 15:27N 38°27' E 015°54'0 0.0
2017-Jan-10 14:33N 38°27' E 015°54'0 0.0
2017-Jan-10 13:33N 38°27' E 015°54'0 0.0
2017-Jan-10 12:33N 38°27' E 015°54'0 0.0
2017-Jan-10 11:33N 38°27' E 015°54'0 0.0
2017-Jan-10 10:33N 38°27' E 015°54'0 0.0
2017-Jan-10 09:33N 38°27' E 015°54'0 0.0
2017-Jan-10 08:34N 38°27' E 015°54'0 0.0
2017-Jan-10 07:32N 38°27' E 015°54'0 0.0
2017-Jan-10 06:34N 38°27' E 015°54'4 3.6
2017-Jan-10 05:33N 38°27' E 015°50'1 1.5
2017-Jan-10 04:34N 38°28' E 015°49'3 2.6
2017-Jan-10 03:33N 38°30' E 015°47'1110.3
2017-Jan-10 02:32N 38°38' E 015°38'1110.9
2017-Jan-10 01:33N 38°46' E 015°28'1111.2
2017-Jan-10 00:32N 38°53' E 015°18'1111.3
2017-Jan-09 23:33N 39°00' E 015°06'1211.5
2017-Jan-09 22:29N 39°08' E 014°54'26711.1
2017-Jan-08 22:27N 42°00' E 010°26'1010.7
2017-Jan-08 21:33N 42°07' E 010°16'3310.7
2017-Jan-08 18:30N 42°33' E 009°49'2210.8
2017-Jan-08 16:29N 42°53' E 009°38'1010.6
2017-Jan-08 15:33N 43°03' E 009°35'1110.9
2017-Jan-08 14:33N 43°13' E 009°38'1110.7
2017-Jan-08 13:32N 43°24' E 009°41'1111.1
2017-Jan-08 12:33N 43°35' E 009°45'1716.5
2017-Jan-08 11:33N 43°51' E 009°50'1514.6
2017-Jan-08 10:34N 44°05' E 009°51'1 1.1
2017-Jan-08 09:34N 44°06' E 009°51'0 0.0
2017-Jan-08 08:33N 44°06' E 009°51'0 0.0
2017-Jan-08 07:34N 44°06' E 009°51'0 0.0
2017-Jan-08 06:33N 44°06' E 009°51'0 0.0
2017-Jan-08 05:33N 44°06' E 009°51'0 0.0
2017-Jan-08 04:34N 44°06' E 009°51'0 0.0
2017-Jan-08 03:33N 44°06' E 009°51'0 0.0
2017-Jan-08 02:34N 44°06' E 009°51'0 0.0
2017-Jan-08 01:34N 44°06' E 009°51'0 0.0
2017-Jan-08 00:34N 44°06' E 009°51'0 0.0
2017-Jan-07 23:34N 44°06' E 009°51'0 0.0
2017-Jan-07 22:33N 44°06' E 009°51'0 0.0
2017-Jan-07 21:33N 44°06' E 009°51'0 0.0
2017-Jan-07 20:33N 44°06' E 009°51'0 0.0
2017-Jan-07 19:34N 44°06' E 009°51'0 0.0
2017-Jan-07 18:34N 44°06' E 009°51'0 0.0
2017-Jan-07 17:34N 44°06' E 009°51'0 0.0
2017-Jan-07 16:34N 44°06' E 009°51'0 0.0
2017-Jan-07 15:33N 44°06' E 009°51'0 0.0
2017-Jan-07 14:33N 44°06' E 009°51'0 0.0
2017-Jan-07 13:33N 44°06' E 009°51'1 0.6
2017-Jan-07 12:33N 44°06' E 009°51'8 7.5
2017-Jan-07 11:34N 43°59' E 009°54'1515.3
2017-Jan-07 10:33N 43°51' E 009°36'2019.7
2017-Jan-07 09:33N 43°40' E 009°13'2019.8
2017-Jan-07 08:33N 43°30' E 008°49'2719.7
2017-Jan-07 07:13N 43°16' E 008°19'1320.0
2017-Jan-07 06:33N 43°09' E 008°03'2020.4
2017-Jan-07 05:34N 42°59' E 007°40'40719.3
2017-Jan-06 08:26N 39°29' W 000°04'1213.8
2017-Jan-06 07:33N 39°26' W 000°19'0 0.5
2017-Jan-06 06:33N 39°26' W 000°20'0 0.0
2017-Jan-06 05:33N 39°26' W 000°20'0 0.0
2017-Jan-06 04:33N 39°26' W 000°20'0 0.0
2017-Jan-06 03:33N 39°26' W 000°20'0 0.0
2017-Jan-06 02:33N 39°26' W 000°20'0 0.0
2017-Jan-06 01:33N 39°26' W 000°20'0 0.0
2017-Jan-06 00:33N 39°26' W 000°20'0 0.0
2017-Jan-05 23:33N 39°26' W 000°20'0 0.0
2017-Jan-05 22:33N 39°26' W 000°20'0 0.0
2017-Jan-05 21:33N 39°26' W 000°20'0 0.0
2017-Jan-05 20:33N 39°26' W 000°20'0 0.0
2017-Jan-05 19:33N 39°26' W 000°20'0 0.0
2017-Jan-05 18:33N 39°26' W 000°20'0 0.0
2017-Jan-05 17:33N 39°26' W 000°20'0 0.0
2017-Jan-05 16:33N 39°26' W 000°20'0 0.0
2017-Jan-05 15:33N 39°26' W 000°20'0 0.0
2017-Jan-05 14:33N 39°26' W 000°20'0 0.0
2017-Jan-05 13:33N 39°26' W 000°20'0 0.0
2017-Jan-05 12:33N 39°26' W 000°20'0 0.0
2017-Jan-05 11:33N 39°26' W 000°20'0 0.0
2017-Jan-05 10:33N 39°26' W 000°20'0 0.0
2017-Jan-05 09:33N 39°26' W 000°20'0 0.0
2017-Jan-05 08:33N 39°26' W 000°20'0 0.0
2017-Jan-05 07:33N 39°26' W 000°20'0 0.0
2017-Jan-05 06:33N 39°26' W 000°20'0 0.0
2017-Jan-05 05:33N 39°26' W 000°20'0 0.0
2017-Jan-05 04:33N 39°26' W 000°20'0 0.0
2017-Jan-05 03:33N 39°26' W 000°20'0 0.0
2017-Jan-05 02:33N 39°26' W 000°20'0 0.0
2017-Jan-05 01:33N 39°26' W 000°20'0 0.0
2017-Jan-05 00:33N 39°26' W 000°20'0 0.0
2017-Jan-04 23:33N 39°26' W 000°20'0 0.0
2017-Jan-04 22:33N 39°26' W 000°20'0 0.0
2017-Jan-04 21:33N 39°26' W 000°20'0 0.0
2017-Jan-04 20:33N 39°26' W 000°20'0 0.0
2017-Jan-04 19:33N 39°26' W 000°20'0 0.0
2017-Jan-04 18:33N 39°26' W 000°20'0 0.0
2017-Jan-04 17:33N 39°26' W 000°20'0 0.0
2017-Jan-04 16:33N 39°26' W 000°20'0 0.0
2017-Jan-04 15:33N 39°26' W 000°20'0 0.0
2017-Jan-04 14:33N 39°26' W 000°20'0 0.0
2017-Jan-04 13:33N 39°26' W 000°20'0 0.0
2017-Jan-04 12:33N 39°26' W 000°20'0 0.0
2017-Jan-04 11:33N 39°26' W 000°20'0 0.0
2017-Jan-04 10:33N 39°26' W 000°20'0 0.0
2017-Jan-04 09:33N 39°26' W 000°20'0 0.0
2017-Jan-04 08:33N 39°26' W 000°20'0 0.0
2017-Jan-04 07:33N 39°26' W 000°20'0 0.0
2017-Jan-04 06:33N 39°26' W 000°20'0 0.0
2017-Jan-04 05:33N 39°26' W 000°20'0 0.0
2017-Jan-04 04:33N 39°26' W 000°20'0 0.0
2017-Jan-04 03:33N 39°26' W 000°20'0 0.0
2017-Jan-04 02:33N 39°26' W 000°20'0 0.0
2017-Jan-04 01:33N 39°26' W 000°20'0 0.0
2017-Jan-04 00:33N 39°26' W 000°20'0 0.0
2017-Jan-03 23:33N 39°26' W 000°20'0 0.0
2017-Jan-03 22:33N 39°26' W 000°20'0 0.0
2017-Jan-03 21:33N 39°26' W 000°20'0 0.0
2017-Jan-03 20:33N 39°26' W 000°20'0 0.0
2017-Jan-03 19:33N 39°26' W 000°20'0 0.0
2017-Jan-03 18:33N 39°26' W 000°20'0 0.4
2017-Jan-03 17:32N 39°26' W 000°19'6 5.9
2017-Jan-03 16:32N 39°28' W 000°12'3818.2
2017-Jan-03 14:27N 39°53' E 000°24'1819.7
2017-Jan-03 13:33N 40°05' E 000°41'2019.7
2017-Jan-03 12:33N 40°19' E 001°00'2019.6
2017-Jan-03 11:33N 40°32' E 001°19'2020.0
2017-Jan-03 10:33N 40°47' E 001°37'2020.5
2017-Jan-03 09:33N 41°02' E 001°55'2017.1
2017-Jan-03 08:23N 41°19' E 002°10'1 1.0
2017-Jan-03 07:27N 41°19' E 002°09'0 0.0
2017-Jan-03 06:16N 41°19' E 002°09'0 0.0
2017-Jan-03 05:33N 41°19' E 002°09'0 0.0
2017-Jan-03 04:33N 41°19' E 002°09'0 0.0
2017-Jan-03 03:33N 41°19' E 002°09'0 0.0
2017-Jan-03 02:33N 41°19' E 002°09'0 0.0
2017-Jan-03 01:33N 41°19' E 002°09'0 0.0
2017-Jan-03 00:33N 41°19' E 002°09'0 0.0
2017-Jan-02 23:33N 41°19' E 002°09'0 0.0
2017-Jan-02 22:12N 41°19' E 002°09'0 0.0
2017-Jan-02 21:33N 41°19' E 002°09'0 0.0
2017-Jan-02 20:33N 41°19' E 002°09'0 0.0
2017-Jan-02 19:33N 41°19' E 002°09'0 0.0
2017-Jan-02 18:28N 41°19' E 002°09'0 0.0
2017-Jan-02 17:29N 41°19' E 002°09'0 0.0
2017-Jan-02 16:34N 41°19' E 002°09'0 0.0
2017-Jan-02 13:25N 41°19' E 002°09'0 0.0
2017-Jan-02 12:29N 41°19' E 002°09'0 0.0
2017-Jan-02 11:26N 41°19' E 002°09'0 0.0
2017-Jan-02 10:17N 41°19' E 002°09'0 0.0
2017-Jan-02 09:33N 41°19' E 002°09'0 0.0
2017-Jan-02 08:34N 41°19' E 002°09'0 0.0
2017-Jan-02 07:33N 41°19' E 002°09'  
Track history (hours):
 
Tides and Currents Weather Stations Pressure Air Temp Water Temp Dewpoint Dewpoint Depression Visibility Wind Speed Wind Dir Waves Ship Positions

MSC Bettina

Last reported at 2017-Jan-12 06:28 UTC. Time now 2017-Jan-20 22:09 UTC.
Position N 37°36' E 016°20'.
Warning: this ship's position is 8 days out of date.

Length 366 m; draft 13.5 m.

Type: Ship (hazmat cat A). MMSI: 352361000.

Date/timePositionNaut miles runAvg speedWind from/ knotsBaromVisibWave heightAir tempDewpointWater temp
2017-Jan-12 06:28N 37°36' E 016°20'2020.1
2017-Jan-12 05:28N 37°45' E 015°57'1819.7
2017-Jan-12 04:34N 37°53' E 015°37'1818.1
2017-Jan-12 03:33N 38°11' E 015°36'1312.9
2017-Jan-12 02:32N 38°22' E 015°45'9 8.8
2017-Jan-12 01:33N 38°27' E 015°54'0 0.0
2017-Jan-11 22:24N 38°27' E 015°54'0 0.0
2017-Jan-11 21:24N 38°27' E 015°54'0 0.0
2017-Jan-11 20:30N 38°27' E 015°54'0 0.0
2017-Jan-11 19:30N 38°27' E 015°54'0 0.0
2017-Jan-11 17:24N 38°27' E 015°54'0 0.0
2017-Jan-11 16:33N 38°27' E 015°54'0 0.0
2017-Jan-11 15:27N 38°27' E 015°54'0 0.0
2017-Jan-11 14:30N 38°27' E 015°54'0 0.0
2017-Jan-11 13:33N 38°27' E 015°54'0 0.0
2017-Jan-11 12:30N 38°27' E 015°54'0 0.0
2017-Jan-11 11:33N 38°27' E 015°54'0 0.0
2017-Jan-11 10:27N 38°27' E 015°54'0 0.0
2017-Jan-11 09:33N 38°27' E 015°54'0 0.0
2017-Jan-11 08:33N 38°27' E 015°54'0 0.0
2017-Jan-11 07:27N 38°27' E 015°54'0 0.0
2017-Jan-11 06:33N 38°27' E 015°54'0 0.0
2017-Jan-11 05:27N 38°27' E 015°54'0 0.0
2017-Jan-11 04:33N 38°27' E 015°54'0 0.0
2017-Jan-11 03:33N 38°27' E 015°54'0 0.0
2017-Jan-11 02:33N 38°27' E 015°54'0 0.0
2017-Jan-11 01:30N 38°27' E 015°54'0 0.0
2017-Jan-10 23:30N 38°27' E 015°54'0 0.0
2017-Jan-10 22:09N 38°27' E 015°54'0 0.0
2017-Jan-10 21:33N 38°27' E 015°54'0 0.0
2017-Jan-10 20:30N 38°27' E 015°54'0 0.0
2017-Jan-10 19:27N 38°27' E 015°54'0 0.0
2017-Jan-10 18:27N 38°27' E 015°54'0 0.0
2017-Jan-10 17:15N 38°27' E 015°54'0 0.0
2017-Jan-10 16:27N 38°27' E 015°54'0 0.0
2017-Jan-10 15:27N 38°27' E 015°54'0 0.0
2017-Jan-10 14:33N 38°27' E 015°54'0 0.0
2017-Jan-10 13:33N 38°27' E 015°54'0 0.0
2017-Jan-10 12:33N 38°27' E 015°54'0 0.0
2017-Jan-10 11:33N 38°27' E 015°54'0 0.0
2017-Jan-10 10:33N 38°27' E 015°54'0 0.0
2017-Jan-10 09:33N 38°27' E 015°54'0 0.0
2017-Jan-10 08:34N 38°27' E 015°54'0 0.0
2017-Jan-10 07:32N 38°27' E 015°54'0 0.0
2017-Jan-10 06:34N 38°27' E 015°54'4 3.6
2017-Jan-10 05:33N 38°27' E 015°50'1 1.5
2017-Jan-10 04:34N 38°28' E 015°49'3 2.6
2017-Jan-10 03:33N 38°30' E 015°47'1110.3
2017-Jan-10 02:32N 38°38' E 015°38'1110.9
2017-Jan-10 01:33N 38°46' E 015°28'1111.2
2017-Jan-10 00:32N 38°53' E 015°18'1111.3
2017-Jan-09 23:33N 39°00' E 015°06'1211.5
2017-Jan-09 22:29N 39°08' E 014°54'26711.1
2017-Jan-08 22:27N 42°00' E 010°26'1010.7
2017-Jan-08 21:33N 42°07' E 010°16'3310.7
2017-Jan-08 18:30N 42°33' E 009°49'2210.8
2017-Jan-08 16:29N 42°53' E 009°38'1010.6
2017-Jan-08 15:33N 43°03' E 009°35'1110.9
2017-Jan-08 14:33N 43°13' E 009°38'1110.7
2017-Jan-08 13:32N 43°24' E 009°41'1111.1
2017-Jan-08 12:33N 43°35' E 009°45'1716.5
2017-Jan-08 11:33N 43°51' E 009°50'1514.6
2017-Jan-08 10:34N 44°05' E 009°51'1 1.1
2017-Jan-08 09:34N 44°06' E 009°51'0 0.0
2017-Jan-08 08:33N 44°06' E 009°51'0 0.0
2017-Jan-08 07:34N 44°06' E 009°51'0 0.0
2017-Jan-08 06:33N 44°06' E 009°51'0 0.0
2017-Jan-08 05:33N 44°06' E 009°51'0 0.0
2017-Jan-08 04:34N 44°06' E 009°51'0 0.0
2017-Jan-08 03:33N 44°06' E 009°51'0 0.0
2017-Jan-08 02:34N 44°06' E 009°51'0 0.0
2017-Jan-08 01:34N 44°06' E 009°51'0 0.0
2017-Jan-08 00:34N 44°06' E 009°51'0 0.0
2017-Jan-07 23:34N 44°06' E 009°51'0 0.0
2017-Jan-07 22:33N 44°06' E 009°51'0 0.0
2017-Jan-07 21:33N 44°06' E 009°51'0 0.0
2017-Jan-07 20:33N 44°06' E 009°51'0 0.0
2017-Jan-07 19:34N 44°06' E 009°51'0 0.0
2017-Jan-07 18:34N 44°06' E 009°51'0 0.0
2017-Jan-07 17:34N 44°06' E 009°51'0 0.0
2017-Jan-07 16:34N 44°06' E 009°51'0 0.0
2017-Jan-07 15:33N 44°06' E 009°51'0 0.0
2017-Jan-07 14:33N 44°06' E 009°51'0 0.0
2017-Jan-07 13:33N 44°06' E 009°51'1 0.6
2017-Jan-07 12:33N 44°06' E 009°51'8 7.5
2017-Jan-07 11:34N 43°59' E 009°54'1515.3
2017-Jan-07 10:33N 43°51' E 009°36'2019.7
2017-Jan-07 09:33N 43°40' E 009°13'2019.8
2017-Jan-07 08:33N 43°30' E 008°49'2719.7
2017-Jan-07 07:13N 43°16' E 008°19'1320.0
2017-Jan-07 06:33N 43°09' E 008°03'2020.4
2017-Jan-07 05:34N 42°59' E 007°40'40719.3
2017-Jan-06 08:26N 39°29' W 000°04'1213.8
2017-Jan-06 07:33N 39°26' W 000°19'0 0.5
2017-Jan-06 06:33N 39°26' W 000°20'0 0.0
2017-Jan-06 05:33N 39°26' W 000°20'0 0.0
2017-Jan-06 04:33N 39°26' W 000°20'0 0.0
2017-Jan-06 03:33N 39°26' W 000°20'0 0.0
2017-Jan-06 02:33N 39°26' W 000°20'0 0.0
2017-Jan-06 01:33N 39°26' W 000°20'0 0.0
2017-Jan-06 00:33N 39°26' W 000°20'0 0.0
2017-Jan-05 23:33N 39°26' W 000°20'0 0.0
2017-Jan-05 22:33N 39°26' W 000°20'0 0.0
2017-Jan-05 21:33N 39°26' W 000°20'0 0.0
2017-Jan-05 20:33N 39°26' W 000°20'0 0.0
2017-Jan-05 19:33N 39°26' W 000°20'0 0.0
2017-Jan-05 18:33N 39°26' W 000°20'0 0.0
2017-Jan-05 17:33N 39°26' W 000°20'0 0.0
2017-Jan-05 16:33N 39°26' W 000°20'0 0.0
2017-Jan-05 15:33N 39°26' W 000°20'0 0.0
2017-Jan-05 14:33N 39°26' W 000°20'0 0.0
2017-Jan-05 13:33N 39°26' W 000°20'0 0.0
2017-Jan-05 12:33N 39°26' W 000°20'0 0.0
2017-Jan-05 11:33N 39°26' W 000°20'0 0.0
2017-Jan-05 10:33N 39°26' W 000°20'0 0.0
2017-Jan-05 09:33N 39°26' W 000°20'0 0.0
2017-Jan-05 08:33N 39°26' W 000°20'0 0.0
2017-Jan-05 07:33N 39°26' W 000°20'0 0.0
2017-Jan-05 06:33N 39°26' W 000°20'0 0.0
2017-Jan-05 05:33N 39°26' W 000°20'0 0.0
2017-Jan-05 04:33N 39°26' W 000°20'0 0.0
2017-Jan-05 03:33N 39°26' W 000°20'0 0.0
2017-Jan-05 02:33N 39°26' W 000°20'0 0.0
2017-Jan-05 01:33N 39°26' W 000°20'0 0.0
2017-Jan-05 00:33N 39°26' W 000°20'0 0.0
2017-Jan-04 23:33N 39°26' W 000°20'0 0.0
2017-Jan-04 22:33N 39°26' W 000°20'0 0.0
2017-Jan-04 21:33N 39°26' W 000°20'0 0.0
2017-Jan-04 20:33N 39°26' W 000°20'0 0.0
2017-Jan-04 19:33N 39°26' W 000°20'0 0.0
2017-Jan-04 18:33N 39°26' W 000°20'0 0.0
2017-Jan-04 17:33N 39°26' W 000°20'0 0.0
2017-Jan-04 16:33N 39°26' W 000°20'0 0.0
2017-Jan-04 15:33N 39°26' W 000°20'0 0.0
2017-Jan-04 14:33N 39°26' W 000°20'0 0.0
2017-Jan-04 13:33N 39°26' W 000°20'0 0.0
2017-Jan-04 12:33N 39°26' W 000°20'0 0.0
2017-Jan-04 11:33N 39°26' W 000°20'0 0.0
2017-Jan-04 10:33N 39°26' W 000°20'0 0.0
2017-Jan-04 09:33N 39°26' W 000°20'0 0.0
2017-Jan-04 08:33N 39°26' W 000°20'0 0.0
2017-Jan-04 07:33N 39°26' W 000°20'0 0.0
2017-Jan-04 06:33N 39°26' W 000°20'0 0.0
2017-Jan-04 05:33N 39°26' W 000°20'0 0.0
2017-Jan-04 04:33N 39°26' W 000°20'0 0.0
2017-Jan-04 03:33N 39°26' W 000°20'0 0.0
2017-Jan-04 02:33N 39°26' W 000°20'0 0.0
2017-Jan-04 01:33N 39°26' W 000°20'0 0.0
2017-Jan-04 00:33N 39°26' W 000°20'0 0.0
2017-Jan-03 23:33N 39°26' W 000°20'0 0.0
2017-Jan-03 22:33N 39°26' W 000°20'0 0.0
2017-Jan-03 21:33N 39°26' W 000°20'0 0.0
2017-Jan-03 20:33N 39°26' W 000°20'0 0.0
2017-Jan-03 19:33N 39°26' W 000°20'0 0.0
2017-Jan-03 18:33N 39°26' W 000°20'0 0.4
2017-Jan-03 17:32N 39°26' W 000°19'6 5.9
2017-Jan-03 16:32N 39°28' W 000°12'3818.2
2017-Jan-03 14:27N 39°53' E 000°24'1819.7
2017-Jan-03 13:33N 40°05' E 000°41'2019.7
2017-Jan-03 12:33N 40°19' E 001°00'2019.6
2017-Jan-03 11:33N 40°32' E 001°19'2020.0
2017-Jan-03 10:33N 40°47' E 001°37'2020.5
2017-Jan-03 09:33N 41°02' E 001°55'2017.1
2017-Jan-03 08:23N 41°19' E 002°10'1 1.0
2017-Jan-03 07:27N 41°19' E 002°09'0 0.0
2017-Jan-03 06:16N 41°19' E 002°09'0 0.0
2017-Jan-03 05:33N 41°19' E 002°09'0 0.0
2017-Jan-03 04:33N 41°19' E 002°09'0 0.0
2017-Jan-03 03:33N 41°19' E 002°09'0 0.0
2017-Jan-03 02:33N 41°19' E 002°09'0 0.0
2017-Jan-03 01:33N 41°19' E 002°09'0 0.0
2017-Jan-03 00:33N 41°19' E 002°09'0 0.0
2017-Jan-02 23:33N 41°19' E 002°09'0 0.0
2017-Jan-02 22:12N 41°19' E 002°09'0 0.0
2017-Jan-02 21:33N 41°19' E 002°09'0 0.0
2017-Jan-02 20:33N 41°19' E 002°09'0 0.0
2017-Jan-02 19:33N 41°19' E 002°09'0 0.0
2017-Jan-02 18:28N 41°19' E 002°09'0 0.0
2017-Jan-02 17:29N 41°19' E 002°09'0 0.0
2017-Jan-02 16:34N 41°19' E 002°09'0 0.0
2017-Jan-02 13:25N 41°19' E 002°09'0 0.0
2017-Jan-02 12:29N 41°19' E 002°09'0 0.0
2017-Jan-02 11:26N 41°19' E 002°09'0 0.0
2017-Jan-02 10:17N 41°19' E 002°09'0 0.0
2017-Jan-02 09:33N 41°19' E 002°09'0 0.0
2017-Jan-02 08:34N 41°19' E 002°09'0 0.0
2017-Jan-02 07:33N 41°19' E 002°09'  

Dump ship's entire track history